sensor_id;sensor_type;location;lat;lon;timestamp;P1;durP1;ratioP1;P2;durP2;ratioP2
74152;SDS011;62505;46.070;14.492;2024-03-07T00:00:06;6.60;;;4.78;;
74152;SDS011;62505;46.070;14.492;2024-03-07T00:02:39;7.13;;;4.53;;
74152;SDS011;62505;46.070;14.492;2024-03-07T00:05:07;7.03;;;4.82;;
74152;SDS011;62505;46.070;14.492;2024-03-07T00:07:34;8.00;;;4.65;;
74152;SDS011;62505;46.070;14.492;2024-03-07T00:10:01;8.63;;;5.03;;
74152;SDS011;62505;46.070;14.492;2024-03-07T00:12:29;6.80;;;4.85;;
74152;SDS011;62505;46.070;14.492;2024-03-07T00:14:57;6.45;;;4.82;;
74152;SDS011;62505;46.070;14.492;2024-03-07T00:17:26;9.82;;;5.35;;
74152;SDS011;62505;46.070;14.492;2024-03-07T00:19:53;7.95;;;5.43;;
74152;SDS011;62505;46.070;14.492;2024-03-07T00:22:20;7.55;;;4.63;;
74152;SDS011;62505;46.070;14.492;2024-03-07T00:24:47;5.72;;;4.15;;
74152;SDS011;62505;46.070;14.492;2024-03-07T00:27:14;6.68;;;4.82;;
74152;SDS011;62505;46.070;14.492;2024-03-07T00:29:42;7.28;;;4.43;;
74152;SDS011;62505;46.070;14.492;2024-03-07T00:32:11;12.23;;;6.38;;
74152;SDS011;62505;46.070;14.492;2024-03-07T00:34:40;7.70;;;5.03;;
74152;SDS011;62505;46.070;14.492;2024-03-07T00:37:07;9.20;;;5.85;;
74152;SDS011;62505;46.070;14.492;2024-03-07T00:39:34;8.50;;;5.13;;
74152;SDS011;62505;46.070;14.492;2024-03-07T00:42:01;7.80;;;4.50;;
74152;SDS011;62505;46.070;14.492;2024-03-07T00:44:28;6.88;;;4.93;;
74152;SDS011;62505;46.070;14.492;2024-03-07T00:46:55;5.80;;;4.45;;
74152;SDS011;62505;46.070;14.492;2024-03-07T00:49:23;6.65;;;4.85;;
74152;SDS011;62505;46.070;14.492;2024-03-07T00:51:52;10.07;;;4.88;;
74152;SDS011;62505;46.070;14.492;2024-03-07T00:54:19;7.65;;;4.60;;
74152;SDS011;62505;46.070;14.492;2024-03-07T00:56:46;9.65;;;4.80;;
74152;SDS011;62505;46.070;14.492;2024-03-07T00:59:14;8.15;;;5.00;;
74152;SDS011;62505;46.070;14.492;2024-03-07T01:01:41;7.80;;;5.05;;
74152;SDS011;62505;46.070;14.492;2024-03-07T01:04:08;7.03;;;5.13;;
74152;SDS011;62505;46.070;14.492;2024-03-07T01:06:35;9.27;;;5.13;;
74152;SDS011;62505;46.070;14.492;2024-03-07T01:09:03;7.95;;;5.38;;
74152;SDS011;62505;46.070;14.492;2024-03-07T01:11:38;7.32;;;5.15;;
74152;SDS011;62505;46.070;14.492;2024-03-07T01:14:05;6.40;;;4.85;;
74152;SDS011;62505;46.070;14.492;2024-03-07T01:16:32;6.40;;;4.60;;
74152;SDS011;62505;46.070;14.492;2024-03-07T01:18:59;5.82;;;4.70;;
74152;SDS011;62505;46.070;14.492;2024-03-07T01:21:27;7.63;;;5.10;;
74152;SDS011;62505;46.070;14.492;2024-03-07T01:23:54;7.25;;;5.10;;
74152;SDS011;62505;46.070;14.492;2024-03-07T01:26:22;9.88;;;5.40;;
74152;SDS011;62505;46.070;14.492;2024-03-07T01:28:50;9.48;;;5.20;;
74152;SDS011;62505;46.070;14.492;2024-03-07T01:31:17;7.60;;;5.03;;
74152;SDS011;62505;46.070;14.492;2024-03-07T01:33:44;7.40;;;4.97;;
74152;SDS011;62505;46.070;14.492;2024-03-07T01:36:11;6.85;;;4.80;;
74152;SDS011;62505;46.070;14.492;2024-03-07T01:38:38;5.85;;;4.55;;
74152;SDS011;62505;46.070;14.492;2024-03-07T01:41:06;8.90;;;4.90;;
74152;SDS011;62505;46.070;14.492;2024-03-07T01:43:34;6.45;;;4.57;;
74152;SDS011;62505;46.070;14.492;2024-03-07T01:46:01;6.05;;;4.30;;
74152;SDS011;62505;46.070;14.492;2024-03-07T01:48:30;8.25;;;5.00;;
74152;SDS011;62505;46.070;14.492;2024-03-07T01:50:59;7.28;;;5.38;;
74152;SDS011;62505;46.070;14.492;2024-03-07T01:53:29;8.27;;;5.47;;
74152;SDS011;62505;46.070;14.492;2024-03-07T01:55:57;7.30;;;5.55;;
74152;SDS011;62505;46.070;14.492;2024-03-07T01:58:25;7.10;;;5.68;;
74152;SDS011;62505;46.070;14.492;2024-03-07T02:00:54;9.35;;;5.35;;
74152;SDS011;62505;46.070;14.492;2024-03-07T02:03:21;6.45;;;5.03;;
74152;SDS011;62505;46.070;14.492;2024-03-07T02:05:48;11.05;;;5.63;;
74152;SDS011;62505;46.070;14.492;2024-03-07T02:08:16;6.88;;;5.18;;
74152;SDS011;62505;46.070;14.492;2024-03-07T02:10:42;7.03;;;5.18;;
74152;SDS011;62505;46.070;14.492;2024-03-07T02:13:09;8.02;;;4.75;;
74152;SDS011;62505;46.070;14.492;2024-03-07T02:15:37;9.43;;;5.32;;
74152;SDS011;62505;46.070;14.492;2024-03-07T02:18:05;6.10;;;4.80;;
74152;SDS011;62505;46.070;14.492;2024-03-07T02:20:34;9.15;;;5.43;;
74152;SDS011;62505;46.070;14.492;2024-03-07T02:23:02;7.97;;;5.30;;
74152;SDS011;62505;46.070;14.492;2024-03-07T02:25:29;7.60;;;5.25;;
74152;SDS011;62505;46.070;14.492;2024-03-07T02:27:57;11.27;;;4.97;;
74152;SDS011;62505;46.070;14.492;2024-03-07T02:30:24;7.75;;;5.53;;
74152;SDS011;62505;46.070;14.492;2024-03-07T02:32:51;9.68;;;5.03;;
74152;SDS011;62505;46.070;14.492;2024-03-07T02:35:20;11.10;;;5.68;;
74152;SDS011;62505;46.070;14.492;2024-03-07T02:37:47;7.85;;;5.20;;
74152;SDS011;62505;46.070;14.492;2024-03-07T02:40:15;7.05;;;5.03;;
74152;SDS011;62505;46.070;14.492;2024-03-07T02:42:42;7.20;;;4.80;;
74152;SDS011;62505;46.070;14.492;2024-03-07T02:45:09;7.88;;;5.38;;
74152;SDS011;62505;46.070;14.492;2024-03-07T02:47:39;8.02;;;5.43;;
74152;SDS011;62505;46.070;14.492;2024-03-07T02:50:09;7.47;;;5.18;;
74152;SDS011;62505;46.070;14.492;2024-03-07T02:52:36;6.35;;;4.82;;
74152;SDS011;62505;46.070;14.492;2024-03-07T02:55:04;7.63;;;5.32;;
74152;SDS011;62505;46.070;14.492;2024-03-07T02:57:36;7.32;;;5.28;;
74152;SDS011;62505;46.070;14.492;2024-03-07T03:00:04;8.43;;;5.35;;
74152;SDS011;62505;46.070;14.492;2024-03-07T03:02:38;9.43;;;4.95;;
74152;SDS011;62505;46.070;14.492;2024-03-07T03:05:06;7.28;;;4.88;;
74152;SDS011;62505;46.070;14.492;2024-03-07T03:07:37;7.70;;;5.38;;
74152;SDS011;62505;46.070;14.492;2024-03-07T03:10:05;6.80;;;4.85;;
74152;SDS011;62505;46.070;14.492;2024-03-07T03:12:34;7.70;;;5.18;;
74152;SDS011;62505;46.070;14.492;2024-03-07T03:15:04;7.68;;;5.57;;
74152;SDS011;62505;46.070;14.492;2024-03-07T03:17:31;8.55;;;4.38;;
74152;SDS011;62505;46.070;14.492;2024-03-07T03:19:59;8.02;;;5.13;;
74152;SDS011;62505;46.070;14.492;2024-03-07T03:22:26;7.85;;;4.68;;
74152;SDS011;62505;46.070;14.492;2024-03-07T03:24:53;8.48;;;5.22;;
74152;SDS011;62505;46.070;14.492;2024-03-07T03:27:20;7.82;;;5.30;;
74152;SDS011;62505;46.070;14.492;2024-03-07T03:29:49;7.75;;;5.50;;
74152;SDS011;62505;46.070;14.492;2024-03-07T03:32:16;9.18;;;5.75;;
74152;SDS011;62505;46.070;14.492;2024-03-07T03:34:43;7.07;;;4.97;;
74152;SDS011;62505;46.070;14.492;2024-03-07T03:37:10;8.35;;;5.45;;
74152;SDS011;62505;46.070;14.492;2024-03-07T03:39:37;6.78;;;4.75;;
74152;SDS011;62505;46.070;14.492;2024-03-07T03:42:04;5.43;;;4.63;;
74152;SDS011;62505;46.070;14.492;2024-03-07T03:44:32;7.18;;;5.47;;
74152;SDS011;62505;46.070;14.492;2024-03-07T03:47:01;8.10;;;5.18;;
74152;SDS011;62505;46.070;14.492;2024-03-07T03:49:29;7.28;;;5.22;;
74152;SDS011;62505;46.070;14.492;2024-03-07T03:51:56;6.70;;;5.40;;
74152;SDS011;62505;46.070;14.492;2024-03-07T03:54:24;7.82;;;5.13;;
74152;SDS011;62505;46.070;14.492;2024-03-07T03:56:51;9.52;;;5.18;;
74152;SDS011;62505;46.070;14.492;2024-03-07T03:59:18;8.65;;;5.10;;
74152;SDS011;62505;46.070;14.492;2024-03-07T04:01:45;9.10;;;5.25;;
74152;SDS011;62505;46.070;14.492;2024-03-07T04:04:14;8.05;;;5.03;;
74152;SDS011;62505;46.070;14.492;2024-03-07T04:06:41;9.10;;;5.55;;
74152;SDS011;62505;46.070;14.492;2024-03-07T04:09:08;7.88;;;5.05;;
74152;SDS011;62505;46.070;14.492;2024-03-07T04:11:35;11.10;;;5.07;;
74152;SDS011;62505;46.070;14.492;2024-03-07T04:14:03;8.80;;;5.57;;
74152;SDS011;62505;46.070;14.492;2024-03-07T04:16:30;7.88;;;5.50;;
74152;SDS011;62505;46.070;14.492;2024-03-07T04:18:57;7.85;;;5.43;;
74152;SDS011;62505;46.070;14.492;2024-03-07T04:21:25;9.85;;;5.97;;
74152;SDS011;62505;46.070;14.492;2024-03-07T04:23:52;14.63;;;6.03;;
74152;SDS011;62505;46.070;14.492;2024-03-07T04:26:19;7.57;;;5.40;;
74152;SDS011;62505;46.070;14.492;2024-03-07T04:28:46;10.15;;;5.22;;
74152;SDS011;62505;46.070;14.492;2024-03-07T04:31:13;8.85;;;5.22;;
74152;SDS011;62505;46.070;14.492;2024-03-07T04:33:41;8.30;;;5.53;;
74152;SDS011;62505;46.070;14.492;2024-03-07T04:36:08;9.20;;;5.40;;
74152;SDS011;62505;46.070;14.492;2024-03-07T04:38:38;8.23;;;5.55;;
74152;SDS011;62505;46.070;14.492;2024-03-07T04:41:10;9.52;;;5.85;;
74152;SDS011;62505;46.070;14.492;2024-03-07T04:43:37;6.70;;;5.30;;
74152;SDS011;62505;46.070;14.492;2024-03-07T04:46:04;6.80;;;5.32;;
74152;SDS011;62505;46.070;14.492;2024-03-07T04:48:31;7.55;;;5.75;;
74152;SDS011;62505;46.070;14.492;2024-03-07T04:50:58;8.13;;;5.40;;
74152;SDS011;62505;46.070;14.492;2024-03-07T04:53:25;8.90;;;6.28;;
74152;SDS011;62505;46.070;14.492;2024-03-07T04:55:54;9.82;;;5.93;;
74152;SDS011;62505;46.070;14.492;2024-03-07T04:58:21;9.55;;;5.55;;
74152;SDS011;62505;46.070;14.492;2024-03-07T05:00:48;10.30;;;5.63;;
74152;SDS011;62505;46.070;14.492;2024-03-07T05:03:15;7.75;;;5.05;;
74152;SDS011;62505;46.070;14.492;2024-03-07T05:05:42;8.25;;;5.10;;
74152;SDS011;62505;46.070;14.492;2024-03-07T05:08:09;7.95;;;4.70;;
74152;SDS011;62505;46.070;14.492;2024-03-07T05:10:37;8.38;;;6.07;;
74152;SDS011;62505;46.070;14.492;2024-03-07T05:13:05;9.60;;;5.68;;
74152;SDS011;62505;46.070;14.492;2024-03-07T05:15:32;8.98;;;4.93;;
74152;SDS011;62505;46.070;14.492;2024-03-07T05:17:59;8.20;;;5.53;;
74152;SDS011;62505;46.070;14.492;2024-03-07T05:20:26;8.57;;;5.45;;
74152;SDS011;62505;46.070;14.492;2024-03-07T05:22:54;9.85;;;5.35;;
74152;SDS011;62505;46.070;14.492;2024-03-07T05:25:21;12.13;;;5.90;;
74152;SDS011;62505;46.070;14.492;2024-03-07T05:27:48;23.20;;;7.10;;
74152;SDS011;62505;46.070;14.492;2024-03-07T05:30:17;15.95;;;7.70;;
74152;SDS011;62505;46.070;14.492;2024-03-07T05:32:45;11.43;;;7.43;;
74152;SDS011;62505;46.070;14.492;2024-03-07T05:35:13;13.38;;;6.53;;
74152;SDS011;62505;46.070;14.492;2024-03-07T05:37:40;10.05;;;6.60;;
74152;SDS011;62505;46.070;14.492;2024-03-07T05:40:12;13.88;;;7.38;;
74152;SDS011;62505;46.070;14.492;2024-03-07T05:42:39;18.33;;;8.20;;
74152;SDS011;62505;46.070;14.492;2024-03-07T05:45:06;15.55;;;6.63;;
74152;SDS011;62505;46.070;14.492;2024-03-07T05:47:35;11.65;;;6.10;;
74152;SDS011;62505;46.070;14.492;2024-03-07T05:50:02;10.77;;;6.72;;
74152;SDS011;62505;46.070;14.492;2024-03-07T05:52:32;13.00;;;6.90;;
74152;SDS011;62505;46.070;14.492;2024-03-07T05:55:00;14.98;;;6.50;;
74152;SDS011;62505;46.070;14.492;2024-03-07T05:57:27;12.20;;;6.75;;
74152;SDS011;62505;46.070;14.492;2024-03-07T05:59:54;14.38;;;6.65;;
74152;SDS011;62505;46.070;14.492;2024-03-07T06:02:21;14.25;;;6.00;;
74152;SDS011;62505;46.070;14.492;2024-03-07T06:04:50;13.95;;;6.45;;
74152;SDS011;62505;46.070;14.492;2024-03-07T06:07:17;13.52;;;6.05;;
74152;SDS011;62505;46.070;14.492;2024-03-07T06:09:44;12.50;;;6.22;;
74152;SDS011;62505;46.070;14.492;2024-03-07T06:12:11;15.18;;;6.32;;
74152;SDS011;62505;46.070;14.492;2024-03-07T06:14:38;11.00;;;6.18;;
74152;SDS011;62505;46.070;14.492;2024-03-07T06:17:05;15.23;;;6.15;;
74152;SDS011;62505;46.070;14.492;2024-03-07T06:19:32;11.23;;;5.88;;
74152;SDS011;62505;46.070;14.492;2024-03-07T06:22:00;10.63;;;6.32;;
74152;SDS011;62505;46.070;14.492;2024-03-07T06:24:31;12.18;;;6.80;;
74152;SDS011;62505;46.070;14.492;2024-03-07T06:26:58;12.73;;;6.68;;
74152;SDS011;62505;46.070;14.492;2024-03-07T06:29:28;14.55;;;6.57;;
74152;SDS011;62505;46.070;14.492;2024-03-07T06:31:55;14.05;;;6.18;;
74152;SDS011;62505;46.070;14.492;2024-03-07T06:34:23;10.55;;;6.10;;
74152;SDS011;62505;46.070;14.492;2024-03-07T06:36:50;13.85;;;6.47;;
74152;SDS011;62505;46.070;14.492;2024-03-07T06:39:19;10.43;;;5.97;;
74152;SDS011;62505;46.070;14.492;2024-03-07T06:41:47;7.82;;;5.70;;
74152;SDS011;62505;46.070;14.492;2024-03-07T06:44:14;11.40;;;5.32;;
74152;SDS011;62505;46.070;14.492;2024-03-07T06:46:42;11.55;;;5.70;;
74152;SDS011;62505;46.070;14.492;2024-03-07T06:49:11;14.65;;;5.97;;
74152;SDS011;62505;46.070;14.492;2024-03-07T06:51:38;9.25;;;5.60;;
74152;SDS011;62505;46.070;14.492;2024-03-07T06:54:05;9.65;;;6.00;;
74152;SDS011;62505;46.070;14.492;2024-03-07T06:56:33;9.07;;;5.80;;
74152;SDS011;62505;46.070;14.492;2024-03-07T06:59:00;11.68;;;5.65;;
74152;SDS011;62505;46.070;14.492;2024-03-07T07:01:29;14.57;;;5.53;;
74152;SDS011;62505;46.070;14.492;2024-03-07T07:03:57;9.70;;;5.63;;
74152;SDS011;62505;46.070;14.492;2024-03-07T07:06:28;9.75;;;5.90;;
74152;SDS011;62505;46.070;14.492;2024-03-07T07:08:56;10.10;;;6.00;;
74152;SDS011;62505;46.070;14.492;2024-03-07T07:11:23;7.90;;;5.72;;
74152;SDS011;62505;46.070;14.492;2024-03-07T07:13:52;12.23;;;5.82;;
74152;SDS011;62505;46.070;14.492;2024-03-07T07:16:19;12.15;;;5.53;;
74152;SDS011;62505;46.070;14.492;2024-03-07T07:18:46;9.23;;;5.72;;
74152;SDS011;62505;46.070;14.492;2024-03-07T07:21:13;9.30;;;5.18;;
74152;SDS011;62505;46.070;14.492;2024-03-07T07:23:41;14.05;;;5.70;;
74152;SDS011;62505;46.070;14.492;2024-03-07T07:26:08;9.43;;;5.70;;
74152;SDS011;62505;46.070;14.492;2024-03-07T07:28:35;8.40;;;5.35;;
74152;SDS011;62505;46.070;14.492;2024-03-07T07:31:04;8.27;;;5.82;;
74152;SDS011;62505;46.070;14.492;2024-03-07T07:33:31;10.65;;;6.18;;
74152;SDS011;62505;46.070;14.492;2024-03-07T07:35:58;10.50;;;5.55;;
74152;SDS011;62505;46.070;14.492;2024-03-07T07:38:25;19.58;;;6.93;;
74152;SDS011;62505;46.070;14.492;2024-03-07T07:40:52;13.75;;;6.63;;
74152;SDS011;62505;46.070;14.492;2024-03-07T07:43:19;15.88;;;6.75;;
74152;SDS011;62505;46.070;14.492;2024-03-07T07:45:46;15.65;;;6.28;;
74152;SDS011;62505;46.070;14.492;2024-03-07T07:48:14;21.92;;;7.57;;
74152;SDS011;62505;46.070;14.492;2024-03-07T07:50:42;18.77;;;7.13;;
74152;SDS011;62505;46.070;14.492;2024-03-07T07:53:08;18.80;;;6.57;;
74152;SDS011;62505;46.070;14.492;2024-03-07T07:55:35;19.10;;;6.85;;
74152;SDS011;62505;46.070;14.492;2024-03-07T07:58:03;16.95;;;6.82;;
74152;SDS011;62505;46.070;14.492;2024-03-07T08:00:30;14.68;;;6.25;;
74152;SDS011;62505;46.070;14.492;2024-03-07T08:02:58;16.33;;;6.65;;
74152;SDS011;62505;46.070;14.492;2024-03-07T08:05:28;19.88;;;7.13;;
74152;SDS011;62505;46.070;14.492;2024-03-07T08:07:57;22.05;;;7.13;;
74152;SDS011;62505;46.070;14.492;2024-03-07T08:10:25;14.35;;;6.95;;
74152;SDS011;62505;46.070;14.492;2024-03-07T08:12:54;14.43;;;6.35;;
74152;SDS011;62505;46.070;14.492;2024-03-07T08:15:21;20.58;;;6.55;;
74152;SDS011;62505;46.070;14.492;2024-03-07T08:17:48;16.90;;;7.03;;
74152;SDS011;62505;46.070;14.492;2024-03-07T08:20:18;11.70;;;5.82;;
74152;SDS011;62505;46.070;14.492;2024-03-07T08:22:47;15.15;;;6.60;;
74152;SDS011;62505;46.070;14.492;2024-03-07T08:25:16;13.20;;;6.35;;
74152;SDS011;62505;46.070;14.492;2024-03-07T08:27:44;14.63;;;6.15;;
74152;SDS011;62505;46.070;14.492;2024-03-07T08:30:13;14.88;;;6.35;;
74152;SDS011;62505;46.070;14.492;2024-03-07T08:32:41;16.70;;;6.57;;
74152;SDS011;62505;46.070;14.492;2024-03-07T08:35:10;14.55;;;6.43;;
74152;SDS011;62505;46.070;14.492;2024-03-07T08:37:37;16.10;;;6.85;;
74152;SDS011;62505;46.070;14.492;2024-03-07T08:40:07;10.82;;;6.15;;
74152;SDS011;62505;46.070;14.492;2024-03-07T08:42:36;12.23;;;6.55;;
74152;SDS011;62505;46.070;14.492;2024-03-07T08:45:03;18.00;;;6.57;;
74152;SDS011;62505;46.070;14.492;2024-03-07T08:47:31;12.30;;;5.80;;
74152;SDS011;62505;46.070;14.492;2024-03-07T08:49:58;14.73;;;6.22;;
74152;SDS011;62505;46.070;14.492;2024-03-07T08:52:26;12.88;;;5.40;;
74152;SDS011;62505;46.070;14.492;2024-03-07T08:54:53;13.57;;;5.90;;
74152;SDS011;62505;46.070;14.492;2024-03-07T08:57:22;14.68;;;6.10;;
74152;SDS011;62505;46.070;14.492;2024-03-07T08:59:50;12.90;;;6.10;;
74152;SDS011;62505;46.070;14.492;2024-03-07T09:02:17;15.93;;;5.70;;
74152;SDS011;62505;46.070;14.492;2024-03-07T09:04:44;10.98;;;5.68;;
74152;SDS011;62505;46.070;14.492;2024-03-07T09:07:11;10.43;;;5.30;;
74152;SDS011;62505;46.070;14.492;2024-03-07T09:09:39;17.70;;;6.13;;
74152;SDS011;62505;46.070;14.492;2024-03-07T09:12:08;14.38;;;5.50;;
74152;SDS011;62505;46.070;14.492;2024-03-07T09:14:37;11.80;;;5.85;;
74152;SDS011;62505;46.070;14.492;2024-03-07T09:17:05;10.10;;;5.75;;
74152;SDS011;62505;46.070;14.492;2024-03-07T09:19:32;10.68;;;5.75;;
74152;SDS011;62505;46.070;14.492;2024-03-07T09:21:59;12.68;;;6.30;;
74152;SDS011;62505;46.070;14.492;2024-03-07T09:24:28;13.18;;;6.00;;
74152;SDS011;62505;46.070;14.492;2024-03-07T09:26:56;11.15;;;6.68;;
74152;SDS011;62505;46.070;14.492;2024-03-07T09:29:23;10.73;;;5.97;;
74152;SDS011;62505;46.070;14.492;2024-03-07T09:31:51;13.10;;;5.90;;
74152;SDS011;62505;46.070;14.492;2024-03-07T09:34:19;15.35;;;5.85;;
74152;SDS011;62505;46.070;14.492;2024-03-07T09:36:47;10.85;;;5.72;;
74152;SDS011;62505;46.070;14.492;2024-03-07T09:39:14;11.68;;;6.10;;
74152;SDS011;62505;46.070;14.492;2024-03-07T09:41:41;10.13;;;5.53;;
74152;SDS011;62505;46.070;14.492;2024-03-07T09:44:09;12.65;;;5.75;;
74152;SDS011;62505;46.070;14.492;2024-03-07T09:46:38;9.00;;;6.10;;
74152;SDS011;62505;46.070;14.492;2024-03-07T09:49:08;7.85;;;4.90;;
74152;SDS011;62505;46.070;14.492;2024-03-07T09:51:38;9.40;;;5.90;;
74152;SDS011;62505;46.070;14.492;2024-03-07T09:54:05;13.85;;;5.80;;
74152;SDS011;62505;46.070;14.492;2024-03-07T09:56:33;11.70;;;5.75;;
74152;SDS011;62505;46.070;14.492;2024-03-07T09:59:03;10.50;;;5.30;;
74152;SDS011;62505;46.070;14.492;2024-03-07T10:01:33;10.30;;;5.13;;
74152;SDS011;62505;46.070;14.492;2024-03-07T10:04:00;8.10;;;5.25;;
74152;SDS011;62505;46.070;14.492;2024-03-07T10:06:38;10.63;;;5.65;;
74152;SDS011;62505;46.070;14.492;2024-03-07T10:09:05;9.73;;;5.80;;
74152;SDS011;62505;46.070;14.492;2024-03-07T10:11:33;10.48;;;5.75;;
74152;SDS011;62505;46.070;14.492;2024-03-07T10:14:00;8.38;;;5.55;;
74152;SDS011;62505;46.070;14.492;2024-03-07T10:16:29;12.02;;;5.78;;
74152;SDS011;62505;46.070;14.492;2024-03-07T10:18:57;10.40;;;5.43;;
74152;SDS011;62505;46.070;14.492;2024-03-07T10:21:26;7.32;;;4.90;;
74152;SDS011;62505;46.070;14.492;2024-03-07T10:24:05;7.47;;;5.53;;
74152;SDS011;62505;46.070;14.492;2024-03-07T10:26:34;10.00;;;5.70;;
74152;SDS011;62505;46.070;14.492;2024-03-07T10:29:03;9.50;;;5.93;;
74152;SDS011;62505;46.070;14.492;2024-03-07T10:31:31;9.75;;;5.28;;
74152;SDS011;62505;46.070;14.492;2024-03-07T10:33:59;8.10;;;5.15;;
74152;SDS011;62505;46.070;14.492;2024-03-07T10:36:27;9.73;;;5.60;;
74152;SDS011;62505;46.070;14.492;2024-03-07T10:38:56;8.38;;;4.75;;
74152;SDS011;62505;46.070;14.492;2024-03-07T10:41:27;10.05;;;5.60;;
74152;SDS011;62505;46.070;14.492;2024-03-07T10:43:56;8.27;;;5.22;;
74152;SDS011;62505;46.070;14.492;2024-03-07T10:46:24;8.85;;;5.28;;
74152;SDS011;62505;46.070;14.492;2024-03-07T10:48:54;9.98;;;5.28;;
74152;SDS011;62505;46.070;14.492;2024-03-07T10:51:25;9.40;;;5.75;;
74152;SDS011;62505;46.070;14.492;2024-03-07T10:53:59;10.75;;;5.40;;
74152;SDS011;62505;46.070;14.492;2024-03-07T10:56:41;9.73;;;5.68;;
74152;SDS011;62505;46.070;14.492;2024-03-07T10:59:16;7.72;;;5.18;;
74152;SDS011;62505;46.070;14.492;2024-03-07T11:01:45;9.57;;;5.30;;
74152;SDS011;62505;46.070;14.492;2024-03-07T11:04:19;8.48;;;5.20;;
74152;SDS011;62505;46.070;14.492;2024-03-07T11:06:49;9.70;;;5.28;;
74152;SDS011;62505;46.070;14.492;2024-03-07T11:09:16;8.07;;;5.20;;
74152;SDS011;62505;46.070;14.492;2024-03-07T11:11:50;9.48;;;5.32;;
74152;SDS011;62505;46.070;14.492;2024-03-07T11:14:18;7.38;;;4.88;;
74152;SDS011;62505;46.070;14.492;2024-03-07T11:16:47;8.50;;;5.05;;
74152;SDS011;62505;46.070;14.492;2024-03-07T11:19:18;8.27;;;5.35;;
74152;SDS011;62505;46.070;14.492;2024-03-07T11:21:47;8.00;;;4.68;;
74152;SDS011;62505;46.070;14.492;2024-03-07T11:24:24;9.02;;;5.22;;
74152;SDS011;62505;46.070;14.492;2024-03-07T11:26:54;12.15;;;5.32;;
74152;SDS011;62505;46.070;14.492;2024-03-07T11:29:46;6.40;;;4.47;;
74152;SDS011;62505;46.070;14.492;2024-03-07T11:32:18;9.10;;;5.10;;
74152;SDS011;62505;46.070;14.492;2024-03-07T11:34:47;9.27;;;5.70;;
74152;SDS011;62505;46.070;14.492;2024-03-07T11:37:18;10.35;;;5.95;;
74152;SDS011;62505;46.070;14.492;2024-03-07T11:39:48;9.32;;;5.93;;
74152;SDS011;62505;46.070;14.492;2024-03-07T11:42:25;8.57;;;5.70;;
74152;SDS011;62505;46.070;14.492;2024-03-07T11:44:53;9.52;;;6.30;;
74152;SDS011;62505;46.070;14.492;2024-03-07T11:47:22;10.07;;;6.28;;
74152;SDS011;62505;46.070;14.492;2024-03-07T11:49:50;11.65;;;6.13;;
74152;SDS011;62505;46.070;14.492;2024-03-07T11:52:17;10.98;;;6.07;;
74152;SDS011;62505;46.070;14.492;2024-03-07T11:54:45;8.57;;;5.93;;
74152;SDS011;62505;46.070;14.492;2024-03-07T11:57:13;9.82;;;5.13;;
74152;SDS011;62505;46.070;14.492;2024-03-07T11:59:47;10.13;;;5.10;;
74152;SDS011;62505;46.070;14.492;2024-03-07T12:02:17;8.23;;;5.68;;
74152;SDS011;62505;46.070;14.492;2024-03-07T12:04:46;10.88;;;5.35;;
74152;SDS011;62505;46.070;14.492;2024-03-07T12:07:13;7.95;;;5.45;;
74152;SDS011;62505;46.070;14.492;2024-03-07T12:09:42;8.15;;;5.57;;
74152;SDS011;62505;46.070;14.492;2024-03-07T12:12:15;8.85;;;6.00;;
74152;SDS011;62505;46.070;14.492;2024-03-07T12:14:43;7.35;;;5.32;;
74152;SDS011;62505;46.070;14.492;2024-03-07T12:17:12;8.90;;;4.95;;
74152;SDS011;62505;46.070;14.492;2024-03-07T12:19:41;10.70;;;6.20;;
74152;SDS011;62505;46.070;14.492;2024-03-07T12:22:08;6.70;;;4.88;;
74152;SDS011;62505;46.070;14.492;2024-03-07T12:24:38;9.05;;;5.45;;
74152;SDS011;62505;46.070;14.492;2024-03-07T12:27:07;7.35;;;5.30;;
74152;SDS011;62505;46.070;14.492;2024-03-07T12:29:35;8.95;;;5.10;;
74152;SDS011;62505;46.070;14.492;2024-03-07T12:32:06;7.55;;;5.55;;
74152;SDS011;62505;46.070;14.492;2024-03-07T12:34:35;7.30;;;4.95;;
74152;SDS011;62505;46.070;14.492;2024-03-07T12:37:06;8.38;;;5.10;;
74152;SDS011;62505;46.070;14.492;2024-03-07T12:39:34;7.90;;;5.20;;
74152;SDS011;62505;46.070;14.492;2024-03-07T12:42:04;8.35;;;5.22;;
74152;SDS011;62505;46.070;14.492;2024-03-07T12:44:41;8.73;;;4.88;;
74152;SDS011;62505;46.070;14.492;2024-03-07T12:47:12;8.10;;;4.93;;
74152;SDS011;62505;46.070;14.492;2024-03-07T12:49:40;10.43;;;5.20;;
74152;SDS011;62505;46.070;14.492;2024-03-07T12:52:07;7.40;;;5.40;;
74152;SDS011;62505;46.070;14.492;2024-03-07T12:54:35;8.68;;;5.38;;
74152;SDS011;62505;46.070;14.492;2024-03-07T12:57:05;9.05;;;4.85;;
74152;SDS011;62505;46.070;14.492;2024-03-07T12:59:33;11.23;;;5.47;;
74152;SDS011;62505;46.070;14.492;2024-03-07T13:02:02;12.10;;;5.43;;
74152;SDS011;62505;46.070;14.492;2024-03-07T13:04:33;10.18;;;5.57;;
74152;SDS011;62505;46.070;14.492;2024-03-07T13:06:59;18.38;;;6.35;;
74152;SDS011;62505;46.070;14.492;2024-03-07T13:09:29;17.30;;;7.18;;
74152;SDS011;62505;46.070;14.492;2024-03-07T13:11:56;16.15;;;7.28;;
74152;SDS011;62505;46.070;14.492;2024-03-07T13:14:25;13.35;;;6.55;;
74152;SDS011;62505;46.070;14.492;2024-03-07T13:16:55;19.33;;;6.43;;
74152;SDS011;62505;46.070;14.492;2024-03-07T13:19:25;20.02;;;7.00;;
74152;SDS011;62505;46.070;14.492;2024-03-07T13:21:53;17.35;;;6.10;;
74152;SDS011;62505;46.070;14.492;2024-03-07T13:24:21;23.92;;;7.32;;
74152;SDS011;62505;46.070;14.492;2024-03-07T13:26:48;14.88;;;6.47;;
74152;SDS011;62505;46.070;14.492;2024-03-07T13:29:15;15.30;;;7.03;;
74152;SDS011;62505;46.070;14.492;2024-03-07T13:31:48;14.85;;;6.45;;
74152;SDS011;62505;46.070;14.492;2024-03-07T13:34:15;18.35;;;6.57;;
74152;SDS011;62505;46.070;14.492;2024-03-07T13:36:42;14.48;;;6.75;;
74152;SDS011;62505;46.070;14.492;2024-03-07T13:39:12;16.27;;;6.07;;
74152;SDS011;62505;46.070;14.492;2024-03-07T13:41:39;13.35;;;7.05;;
74152;SDS011;62505;46.070;14.492;2024-03-07T13:44:06;14.13;;;6.18;;
74152;SDS011;62505;46.070;14.492;2024-03-07T13:46:33;9.13;;;5.20;;
74152;SDS011;62505;46.070;14.492;2024-03-07T13:49:00;15.20;;;6.07;;
74152;SDS011;62505;46.070;14.492;2024-03-07T13:51:37;10.55;;;6.03;;
74152;SDS011;62505;46.070;14.492;2024-03-07T13:54:16;17.60;;;5.95;;
74152;SDS011;62505;46.070;14.492;2024-03-07T13:57:01;10.55;;;5.30;;
74152;SDS011;62505;46.070;14.492;2024-03-07T13:59:44;12.95;;;6.55;;
74152;SDS011;62505;46.070;14.492;2024-03-07T14:02:33;11.88;;;6.63;;
74152;SDS011;62505;46.070;14.492;2024-03-07T14:08:40;8.13;;;5.95;;
74152;SDS011;62505;46.070;14.492;2024-03-07T14:11:52;9.55;;;5.90;;
74152;SDS011;62505;46.070;14.492;2024-03-07T14:14:45;10.05;;;5.80;;
74152;SDS011;62505;46.070;14.492;2024-03-07T14:20:40;13.10;;;5.60;;
74152;SDS011;62505;46.070;14.492;2024-03-07T14:23:28;8.95;;;4.80;;
74152;SDS011;62505;46.070;14.492;2024-03-07T14:29:12;8.48;;;4.45;;
74152;SDS011;62505;46.070;14.492;2024-03-07T14:31:46;8.88;;;4.90;;
74152;SDS011;62505;46.070;14.492;2024-03-07T14:34:17;6.32;;;4.47;;
74152;SDS011;62505;46.070;14.492;2024-03-07T14:36:56;7.15;;;4.72;;
74152;SDS011;62505;46.070;14.492;2024-03-07T14:39:31;6.68;;;4.47;;
74152;SDS011;62505;46.070;14.492;2024-03-07T14:42:01;7.40;;;4.20;;
74152;SDS011;62505;46.070;14.492;2024-03-07T14:44:36;9.57;;;5.05;;
74152;SDS011;62505;46.070;14.492;2024-03-07T14:47:05;7.28;;;4.80;;